• Join FlightAware (Why Join?)
  • Login
  • US Flag 
07:23AM EDT


 

Airport Tracker/Info


-or-


 

Live Flight TrackerFlight Track Log ✈ UAL906 ✈ 22-Apr-2013 ✈ KORD - EDDM / MUC

Flight Track Log - Related Links

Times and Time Zones

All times are in EDT time to prevent confusion due to time zone crossing. See the UAL906 flight status page for this flight to view local times or setup timezone preferences in your user account.

Time Position Orientation Groundspeed Altitude Reporting Facility
EDT Latitude Longitude Course Direction KTS MPH feet Rate Location/Type
07:17PM 41.9833 -87.8333 14° North 209 241 2,500  Level Chicago TRACON
07:18PM 42.0167 -87.7500 62° Northeast 274 315 5,100 2,760 Climbing Chicago TRACON
07:19PM 42.3623 -87.7772 20° North  Level FlightAware Approximate
07:19PM 42.1344 -87.7711 352° North 302 348 10,000  Level Chicago Center
07:20PM 42.4939 -87.7346 North  Level FlightAware Approximate
07:20PM 42.2164 -87.7694 North 298 343 12,600  Level Chicago Center
07:21PM 42.6265 -87.6968 14° North  Level FlightAware Approximate
07:21PM 42.3031 -87.7631 North 311 358 14,600  Level Chicago Center
07:22PM 42.7609 -87.6519 14° North  Level FlightAware Approximate
07:23PM 42.4042 -87.7367 11° North 365 420 15,700  Level Chicago Center
07:24PM 42.5400 -87.7022 11° North 412 474 18,100 2,160 Climbing Chicago Center
07:25PM 42.6561 -87.6744 10° North 423 487 20,200 1,800 Climbing Chicago Center
07:26PM 42.7778 -87.6442 10° North 438 504 21,900 1,620 Climbing Chicago Center
07:27PM 42.8894 -87.5628 28° Northeast 460 529 23,600 1,620 Climbing Chicago Center
07:28PM 42.9919 -87.4517 38° Northeast 470 541 25,300 1,500 Climbing Chicago Center
07:29PM 43.0975 -87.3361 39° Northeast 479 551 26,800 1,680 Climbing Chicago Center
07:30PM 43.2064 -87.2203 38° Northeast 491 565 28,800 1,800 Climbing Chicago Center
07:31PM 43.3103 -87.1033 39° Northeast 486 559 30,500 1,020 Climbing Chicago Center
07:32PM 43.4325 -86.9675 39° Northeast 472 543 31,000 240 Climbing Chicago Center
07:33PM 43.5361 -86.8517 39° Northeast 477 549 31,100  Climbing Chicago Center
07:34PM 43.6408 -86.7350 39° Northeast 480 552 31,000  Descending Chicago Center
07:34PM 43.6811 -86.6867 41° Northeast 480 552 31,100 60 Climbing Minneapolis Center
07:35PM 43.7817 -86.5647 41° Northeast 480 552 31,100 -60 Level Minneapolis Center
07:36PM 43.8833 -86.4442 41° Northeast 481 554 31,000 -60 Descending Minneapolis Center
07:37PM 43.9839 -86.3242 41° Northeast 477 549 31,000  Level Minneapolis Center
07:38PM 44.0839 -86.2025 41° Northeast 477 549 31,100  Climbing Minneapolis Center
07:39PM 44.1889 -86.0750 41° Northeast 478 550 31,000 -60 Descending Minneapolis Center
07:40PM 44.3072 -85.9306 41° Northeast 475 547 31,000  Level Minneapolis Center
07:41PM 44.4067 -85.8103 41° Northeast 476 548 31,000  Level Minneapolis Center
07:43PM 44.5036 -85.6900 41° Northeast 473 544 31,000  Level Minneapolis Center
07:44PM 44.6006 -85.5706 41° Northeast 470 541 31,000  Level Minneapolis Center
07:45PM 44.6981 -85.4506 41° Northeast 471 542 31,000  Level Minneapolis Center
07:46PM 44.8144 -85.3058 41° Northeast 470 541 31,000  Level Minneapolis Center
07:47PM 44.9122 -85.1831 42° Northeast 472 543 31,000  Level Minneapolis Center
07:48PM 45.0089 -85.0622 41° Northeast 468 539 31,000  Level Minneapolis Center
07:49PM 45.1064 -84.9406 41° Northeast 469 540 31,000  Level Minneapolis Center
07:50PM 45.2025 -84.8172 42° Northeast 468 539 31,000  Level Minneapolis Center
07:51PM 45.2992 -84.6947 42° Northeast 468 539 31,000  Level Minneapolis Center
07:52PM 45.4131 -84.5503 42° Northeast 461 531 31,000  Level Minneapolis Center
07:53PM 45.5064 -84.4289 42° Northeast 457 526 31,000  Level Minneapolis Center
07:54PM 45.6006 -84.3092 42° Northeast 456 525 31,000  Level Minneapolis Center
07:55PM 45.6928 -84.1872 43° Northeast 454 522 31,000  Level Minneapolis Center
07:56PM 45.7864 -84.0656 42° Northeast 455 524 31,000  Level Minneapolis Center
07:57PM 45.8806 -83.9444 42° Northeast 456 525 31,000  Level Minneapolis Center
07:58PM 45.9500 -83.8333 48° Northeast 470 541 31,100  Climbing Toronto Center
07:59PM 46.0500 -83.7000 43° Northeast 470 541 31,100  Level Toronto Center
08:00PM 46.1333 -83.5833 44° Northeast 460 529 31,100  Level Toronto Center
08:01PM 46.2333 -83.4333 46° Northeast 460 529 31,100 -60 Level Toronto Center
08:02PM 46.3167 -83.3333 40° Northeast 470 541 31,000  Descending Toronto Center
08:03PM 46.4333 -83.1833 42° Northeast 470 541 31,100  Climbing Toronto Center
08:04PM 46.5167 -83.0500 48° Northeast 480 552 31,100  Level Toronto Center
08:05PM 46.6167 -82.9167 42° Northeast 490 564 31,100 -60 Level Toronto Center
08:06PM 46.7167 -82.8000 39° Northeast 490 564 31,000  Descending Toronto Center
08:07PM 46.8167 -82.6500 46° Northeast 480 552 31,100  Climbing Toronto Center
08:08PM 46.9167 -82.5167 42° Northeast 480 552 31,000  Descending Toronto Center
08:09PM 47.0167 -82.3667 46° Northeast 480 552 31,100  Climbing Toronto Center
08:10PM 47.1000 -82.2500 44° Northeast 480 552 31,100  Level Toronto Center
08:11PM 47.2000 -82.1167 42° Northeast 480 552 31,100  Level Toronto Center
08:12PM 47.3000 -81.9667 45° Northeast 480 552 31,100  Level Toronto Center
08:13PM 47.4000 -81.8167 45° Northeast 480 552 31,100  Level Toronto Center
08:14PM 47.4833 -81.7000 43° Northeast 480 552 31,100  Level Toronto Center
08:15PM 47.5833 -81.5667 42° Northeast 480 552 31,100  Level Toronto Center
08:16PM 47.6833 -81.4167 45° Northeast 480 552 31,100  Level Toronto Center
08:17PM 47.7667 -81.3000 43° Northeast 480 552 31,100  Level Toronto Center
08:18PM 47.8667 -81.1500 45° Northeast 480 552 31,100  Level Toronto Center
08:19PM 47.9500 -81.0000 50° Northeast 480 552 31,100  Level Toronto Center
08:20PM 48.0667 -80.8500 41° Northeast 480 552 31,100  Level Toronto Center
08:21PM 48.1667 -80.7333 38° Northeast 480 552 31,100  Level Montreal Center
08:22PM 48.2500 -80.5833 50° Northeast 480 552 31,100  Level Montreal Center
08:23PM 48.3333 -80.4500 47° Northeast 480 552 31,100  Level Montreal Center
08:24PM 48.4333 -80.3000 45° Northeast 490 564 31,100  Level Montreal Center
08:25PM 48.5333 -80.1333 48° Northeast 480 552 31,100  Level Montreal Center
08:26PM 48.6333 -79.9833 45° Northeast 490 564 31,100  Level Montreal Center
08:27PM 48.7167 -79.8167 53° Northeast 490 564 31,100  Level Montreal Center
08:28PM 48.8000 -79.6667 50° Northeast 490 564 31,100  Level Montreal Center
08:29PM 48.9000 -79.5167 45° Northeast 480 552 31,100  Level Montreal Center
08:30PM 48.9833 -79.3500 53° Northeast 490 564 31,100  Level Montreal Center
08:31PM 49.0667 -79.2333 43° Northeast 480 552 31,100  Level Montreal Center
08:32PM 49.1667 -79.0500 50° Northeast 490 564 31,100 -60 Level Montreal Center
08:33PM 49.2667 -78.9000 44° Northeast 490 564 31,000  Descending Montreal Center
08:34PM 49.3333 -78.7333 58° Northeast 470 541 31,100 600 Climbing Montreal Center
08:35PM 49.4167 -78.5833 49° Northeast 490 564 32,300 900 Climbing Montreal Center
08:36PM 49.5333 -78.4333 40° Northeast 490 564 33,000 360 Climbing Montreal Center
08:37PM 49.6167 -78.2500 55° Northeast 480 552 33,100  Climbing Montreal Center
08:38PM 49.7000 -78.1000 49° Northeast 480 552 33,000  Descending Montreal Center
08:39PM 49.7833 -77.9500 49° Northeast 480 552 33,100  Climbing Montreal Center
08:40PM 49.8833 -77.8000 44° Northeast 470 541 33,000  Descending Montreal Center
08:41PM 49.9667 -77.6333 52° Northeast 480 552 33,100  Climbing Montreal Center
08:42PM 50.0500 -77.4667 52° Northeast 480 552 33,100  Level Montreal Center
08:43PM 50.1333 -77.3000 52° Northeast 480 552 33,100 -60 Level Montreal Center
08:44PM 50.2167 -77.1500 49° Northeast 490 564 33,000  Descending Montreal Center
08:45PM 50.3000 -77.0000 49° Northeast 490 564 33,100  Climbing Montreal Center
08:46PM 50.4000 -76.8333 47° Northeast 490 564 33,100  Level Montreal Center
08:47PM 50.5000 -76.6500 49° Northeast 490 564 33,100  Level Montreal Center
08:48PM 50.5833 -76.5000 49° Northeast 500 575 33,100 -60 Level Montreal Center
08:49PM 50.6667 -76.3167 54° Northeast 500 575 33,000  Descending Montreal Center
08:50PM 50.7500 -76.1500 52° Northeast 500 575 33,100  Climbing Montreal Center
08:51PM 50.8500 -75.9667 49° Northeast 500 575 33,100  Level Montreal Center
08:52PM 50.9333 -75.8000 52° Northeast 500 575 33,100 -60 Level Montreal Center
08:53PM 51.0167 -75.6167 54° Northeast 500 575 33,000 -60 Descending Montreal Center
08:54PM 51.1000 -75.4500 51° Northeast 500 575 33,000  Level Montreal Center
08:55PM 51.1833 -75.2667 54° Northeast 500 575 33,000  Level Montreal Center
08:56PM 51.2833 -75.1000 46° Northeast 500 575 33,100  Climbing Montreal Center
08:57PM 51.3667 -74.9167 54° Northeast 500 575 33,100 -60 Level Montreal Center
08:58PM 51.4500 -74.7500 51° Northeast 500 575 33,000  Descending Montreal Center
08:59PM 51.5333 -74.5500 56° Northeast 500 575 33,100  Climbing Montreal Center
09:00PM 51.6333 -74.4000 43° Northeast 500 575 33,100  Level Montreal Center
09:01PM 51.7167 -74.2000 56° Northeast 500 575 33,100 -60 Level Montreal Center
09:02PM 51.8000 -74.0333 51° Northeast 500 575 33,000 -60 Descending Montreal Center
09:03PM 51.8833 -73.8333 56° Northeast 510 587 33,000  Level Montreal Center
09:04PM 51.9667 -73.6667 51° Northeast 510 587 33,100  Climbing Montreal Center
09:05PM 52.0500 -73.4667 56° Northeast 510 587 33,000  Descending Montreal Center
09:06PM 52.1500 -73.3000 46° Northeast 510 587 33,100  Climbing Montreal Center
09:07PM 52.2333 -73.1000 56° Northeast 500 575 33,100 -60 Level Montreal Center
09:08PM 52.3000 -72.9333 57° Northeast 510 587 33,000 -60 Descending Montreal Center
09:09PM 52.3833 -72.7333 56° Northeast 500 575 33,000  Level Montreal Center
09:10PM 52.4833 -72.5333 51° Northeast 500 575 33,000  Level Montreal Center
09:11PM 52.5667 -72.3667 51° Northeast 510 587 33,000  Level Montreal Center
09:12PM 52.6333 -72.1833 59° Northeast 500 575 33,000  Level Montreal Center
09:13PM 52.7333 -71.9833 50° Northeast 510 587 33,100  Climbing Montreal Center
09:14PM 52.8167 -71.7833 55° Northeast 510 587 33,100 -60 Level Montreal Center
09:15PM 52.8833 -71.6167 56° Northeast 510 587 33,000  Descending Montreal Center
09:16PM 52.9833 -71.4000 52° Northeast 510 587 33,100  Climbing Montreal Center
09:17PM 53.0667 -71.2333 50° Northeast 510 587 33,100 -60 Level Montreal Center
09:18PM 53.1333 -71.0167 63° Northeast 510 587 33,000 -60 Descending Montreal Center
09:19PM 53.2333 -70.8167 50° Northeast 510 587 33,000  Level Montreal Center
09:20PM 53.3000 -70.6333 59° Northeast 510 587 33,100  Climbing Montreal Center
09:21PM 53.3833 -70.4333 55° Northeast 510 587 33,000 -60 Descending Montreal Center
09:22PM 53.4667 -70.2500 53° Northeast 510 587 33,000  Level Montreal Center
09:23PM 53.5500 -70.0333 57° Northeast 510 587 33,000  Level Montreal Center
09:23PM 53.5833 -70.0000 31° Northeast 510 587 33,000  Level Gander Center
09:24PM 53.6500 -69.8167 58° Northeast 510 587 33,000  Level Gander Center
09:25PM 53.7333 -69.6000 57° Northeast 510 587 33,100 60 Climbing Gander Center
09:26PM 53.7833 -69.4333 63° Northeast 510 587 33,100  Level Montreal Center
09:27PM 53.8667 -69.2167 57° Northeast 510 587 33,100 -60 Level Montreal Center
09:28PM 53.9500 -69.0333 52° Northeast 510 587 33,000 -60 Descending Montreal Center
09:29PM 54.0333 -68.8500 52° Northeast 510 587 33,000  Level Montreal Center
09:30PM 54.1167 -68.6333 57° Northeast 510 587 33,000  Level Montreal Center
09:31PM 54.1833 -68.4500 58° Northeast 510 587 33,000  Level Montreal Center
09:32PM 54.2667 -68.2333 57° Northeast 510 587 33,100  Climbing Montreal Center
09:33PM 54.3500 -68.0333 54° Northeast 510 587 33,000 -60 Descending Montreal Center
09:34PM 54.4333 -67.8167 56° Northeast 510 587 33,000  Level Montreal Center
09:35PM 54.5000 -67.6333 58° Northeast 510 587 33,100  Climbing Montreal Center
09:36PM 54.5833 -67.4000 58° Northeast 510 587 33,000  Descending Montreal Center
09:37PM 54.6500 -67.1833 62° Northeast 510 587 33,100  Climbing Montreal Center
09:38PM 54.7333 -67.0000 52° Northeast 500 575 33,000 -120 Descending Montreal Center
09:38PM 54.7667 -66.9333 49° Northeast 520 598 33,000 60 Level Gander Center
09:39PM 54.8167 -66.7667 62° Northeast 520 598 33,100  Climbing Montreal Center
09:40PM 54.8833 -66.5833 58° Northeast 510 587 33,000  Descending Montreal Center
09:40PM 54.9167 -66.5167 49° Northeast 520 598 33,100  Climbing Gander Center
09:41PM 54.9667 -66.3500 62° Northeast 510 587 33,000  Descending Montreal Center
09:42PM 55.0333 -66.1333 62° Northeast 540 621 33,100  Climbing Montreal Center
09:43PM 55.1167 -65.9333 54° Northeast 510 587 33,000 -60 Descending Montreal Center
09:44PM 55.1833 -65.7000 63° Northeast 520 598 33,000  Level Montreal Center
09:45PM 55.2667 -65.5000 54° Northeast 520 598 33,100  Climbing Montreal Center
09:45PM 55.3000 -65.4500 40° Northeast 520 598 33,000 -120 Descending Gander Center
09:46PM 55.3500 -65.2667 64° Northeast 520 598 33,000 60 Level Montreal Center
09:47PM 55.4167 -65.0500 61° Northeast 520 598 33,100  Climbing Montreal Center
09:47PM 55.4500 -65.0167 30° Northeast 530 610 33,000  Descending Gander Center
09:48PM 55.5000 -64.8167 66° East 520 598 33,100  Climbing Montreal Center
09:49PM 55.5667 -64.6167 59° Northeast 510 587 33,000 -60 Descending Montreal Center
09:50PM 55.6500 -64.3833 58° Northeast 520 598 33,000  Level Montreal Center
09:50PM 55.6667 -64.3333 59° Northeast 530 610 33,000 60 Level Gander Center
09:51PM 55.7333 -64.1333 59° Northeast 520 598 33,100  Climbing Gander Center
09:52PM 55.7833 -63.9500 64° Northeast 520 598 33,000 -60 Descending Montreal Center
09:53PM 55.9000 -63.6667 54° Northeast 520 598 33,000  Level Gander Center
09:54PM 55.9667 -63.4667 59° Northeast 520 598 33,000  Level Gander Center
09:55PM 56.0167 -63.2167 70° East 520 598 33,000  Level Gander Center
09:56PM 56.1000 -62.9833 57° Northeast 520 598 33,100  Climbing Gander Center
09:57PM 56.1833 -62.7833 53° Northeast 530 610 33,000  Descending Gander Center
09:58PM 56.2500 -62.5500 63° Northeast 520 598 33,100  Climbing Gander Center
09:59PM 56.3167 -62.3000 64° Northeast 520 598 33,100 -60 Level Gander Center
10:00PM 56.3833 -62.1000 59° Northeast 520 598 33,000 600 Descending Gander Center
10:02PM 56.5167 -61.6500 62° Northeast 510 587 34,900 660 Climbing Gander Center
10:03PM 56.5833 -61.4000 64° Northeast 500 575 35,000  Climbing Gander Center
10:04PM 56.6333 -61.1833 67° East 490 564 35,000  Level Gander Center
10:05PM 56.7000 -60.9500 62° Northeast 490 564 35,000  Level Gander Center
10:06PM 56.7667 -60.7333 61° Northeast 490 564 35,100  Climbing Gander Center
10:07PM 56.8333 -60.5167 61° Northeast 490 564 35,100 -60 Level Gander Center
10:08PM 56.9000 -60.3000 61° Northeast 490 564 35,000  Descending Gander Center
10:09PM 56.9500 -60.0833 67° East 500 575 35,100  Climbing Gander Center
10:10PM 57.0167 -59.8667 60° Northeast 490 564 35,000 -60 Descending Gander Center
10:11PM 57.0667 -59.6500 67° East 490 564 35,000  Level Gander Center
10:12PM 57.1167 -59.4333 67° East 490 564 35,000  Level Gander Center
10:13PM 57.1833 -59.1833 64° Northeast 490 564 35,000  Level Gander Center
10:14PM 57.2167 -58.9333 76° East 500 575 35,000  Level Gander Center
10:15PM 57.2500 -58.7000 75° East 500 575 35,000  Level Gander Center
10:16PM 57.2667 -58.4500 83° East 500 575 35,100  Climbing Gander Center
10:17PM 57.3000 -58.1667 78° East 510 587 35,100 -60 Level Gander Center
10:18PM 57.3333 -57.9500 74° East 510 587 35,000  Descending Gander Center
10:19PM 57.3500 -57.7000 83° East 500 575 35,100  Climbing Gander Center
10:20PM 57.4000 -57.4167 72° East 510 587 35,000  Descending Gander Center
10:21PM 57.4000 -57.1667 90° East 500 575 35,100  Climbing Gander Center
10:22PM 57.4333 -56.9167 76° East 490 564 35,000 -60 Descending Gander Center
10:23PM 57.4500 -56.6833 82° East 490 564 35,000  Level Gander Center
10:24PM 57.4833 -56.4333 76° East 490 564 35,000  Level Gander Center
10:25PM 57.5000 -56.1833 83° East 490 564 35,000  Level Gander Center
10:26PM 57.5333 -55.9333 76° East 490 564 35,000  Level Gander Center
10:27PM 57.5667 -55.6833 76° East 490 564 35,100  Climbing Gander Center
10:28PM 57.5833 -55.4333 83° East 500 575 35,100 -60 Level Gander Center
10:29PM 57.6500 -55.1667 65° Northeast 490 564 35,000 -60 Descending Gander Center
10:30PM 57.6333 -54.9167 97° East 480 552 35,000  Level Gander Center
10:32PM 57.6663 -54.5634 80° East  Level FlightAware Approximate
10:39PM 57.8164 -52.7879 80° East  Level FlightAware Approximate
10:40PM 57.8358 -52.5331 82° East  Level FlightAware Approximate
10:41PM 57.8547 -52.2780 82° East  Level FlightAware Approximate
10:42PM 57.8731 -52.0227 82° East  Level FlightAware Approximate
10:43PM 57.8909 -51.7671 82° East  Level FlightAware Approximate
10:44PM 57.9083 -51.5113 83° East  Level FlightAware Approximate
10:45PM 57.9251 -51.2552 83° East  Level FlightAware Approximate
10:46PM 57.9414 -50.9988 83° East  Level FlightAware Approximate
10:47PM 57.9572 -50.7423 83° East  Level FlightAware Approximate
10:48PM 57.9725 -50.4855 83° East  Level FlightAware Approximate
10:49PM 57.9873 -50.2285 84° East  Level FlightAware Approximate
10:50PM 58.0011 -49.9708 86° East  Level FlightAware Approximate
10:51PM 58.0101 -49.7127 86° East  Level FlightAware Approximate
10:52PM 58.0186 -49.4544 86° East  Level FlightAware Approximate
10:53PM 58.0266 -49.1960 87° East  Level FlightAware Approximate
10:54PM 58.0341 -48.9376 87° East  Level FlightAware Approximate
10:55PM 58.0411 -48.6790 87° East  Level FlightAware Approximate
10:56PM 58.0475 -48.4203 87° East  Level FlightAware Approximate
10:57PM 58.0534 -48.1615 87° East  Level FlightAware Approximate
10:58PM 58.0588 -47.9027 88° East  Level FlightAware Approximate
10:59PM 58.0637 -47.6437 88° East  Level FlightAware Approximate
11:00PM 58.0680 -47.3848 88° East  Level FlightAware Approximate
11:01PM 58.0718 -47.1257 88° East  Level FlightAware Approximate
11:02PM 58.0751 -46.8666 89° East  Level FlightAware Approximate
11:03PM 58.0778 -46.6075 89° East  Level FlightAware Approximate
11:04PM 58.0801 -46.3483 89° East  Level FlightAware Approximate
11:05PM 58.0818 -46.0891 89° East  Level FlightAware Approximate
11:06PM 58.0829 -45.8298 89° East  Level FlightAware Approximate
11:07PM 58.0843 -45.5706 89° East  Level FlightAware Approximate
11:08PM 58.0858 -45.3114 89° East  Level FlightAware Approximate
11:09PM 58.0867 -45.0521 89° East  Level FlightAware Approximate
11:10PM 58.0871 -44.7928 90° East  Level FlightAware Approximate
11:11PM 58.0870 -44.5335 90° East  Level FlightAware Approximate
11:12PM 58.0864 -44.2743 90° East  Level FlightAware Approximate
11:13PM 58.0853 -44.0150 90° East  Level FlightAware Approximate
11:14PM 58.0836 -43.7558 91° East  Level FlightAware Approximate
11:15PM 58.0814 -43.4966 91° East  Level FlightAware Approximate
11:16PM 58.0786 -43.2374 91° East  Level FlightAware Approximate
11:17PM 58.0754 -42.9783 91° East  Level FlightAware Approximate
11:18PM 58.0716 -42.7192 91° East  Level FlightAware Approximate
11:19PM 58.0673 -42.4602 92° East  Level FlightAware Approximate
11:20PM 58.0624 -42.2012 92° East  Level FlightAware Approximate
11:21PM 58.0571 -41.9423 92° East  Level FlightAware Approximate
11:22PM 58.0512 -41.6835 92° East  Level FlightAware Approximate
11:23PM 58.0448 -41.4248 93° East  Level FlightAware Approximate
11:24PM 58.0378 -41.1662 93° East  Level FlightAware Approximate
11:25PM 58.0304 -40.9077 93° East  Level FlightAware Approximate
11:26PM 58.0224 -40.6493 93° East  Level FlightAware Approximate
11:27PM 58.0139 -40.3910 93° East  Level FlightAware Approximate
11:28PM 58.0048 -40.1329 94° East  Level FlightAware Approximate
11:29PM 58.0049 -39.8749 86° East  Level FlightAware Approximate
11:30PM 58.0145 -39.6168 86° East  Level FlightAware Approximate
11:31PM 58.0236 -39.3586 86° East  Level FlightAware Approximate
11:32PM 58.0322 -39.1002 86° East  Level FlightAware Approximate
11:33PM 58.0402 -38.8418 87° East  Level FlightAware Approximate
11:34PM 58.0478 -38.5832 87° East  Level FlightAware Approximate
11:35PM 58.0548 -38.3245 87° East  Level FlightAware Approximate
11:36PM 58.0613 -38.0658 87° East  Level FlightAware Approximate
11:37PM 58.0672 -37.8069 87° East  Level FlightAware Approximate
11:38PM 58.0727 -37.5479 88° East  Level FlightAware Approximate
11:39PM 58.0776 -37.2889 88° East  Level FlightAware Approximate
11:40PM 58.0820 -37.0298 88° East  Level FlightAware Approximate
11:41PM 58.0858 -36.7707 88° East  Level FlightAware Approximate
11:42PM 58.0891 -36.5115 88° East  Level FlightAware Approximate
11:43PM 58.0919 -36.2522 89° East  Level FlightAware Approximate
11:44PM 58.0942 -35.9930 89° East  Level FlightAware Approximate
11:45PM 58.0960 -35.7336 89° East  Level FlightAware Approximate
11:46PM 58.0972 -35.4743 89° East  Level FlightAware Approximate
11:47PM 58.0979 -35.2150 90° East  Level FlightAware Approximate
11:48PM 58.0981 -34.9556 90° East  Level FlightAware Approximate
11:49PM 58.0977 -34.6963 90° East  Level FlightAware Approximate
11:50PM 58.0969 -34.4369 90° East  Level FlightAware Approximate
11:51PM 58.0954 -34.1776 90° East  Level FlightAware Approximate
11:52PM 58.0935 -33.9183 91° East  Level FlightAware Approximate
11:53PM 58.0910 -33.6590 91° East  Level FlightAware Approximate
11:54PM 58.0881 -33.3998 91° East  Level FlightAware Approximate
11:55PM 58.0845 -33.1406 91° East  Level FlightAware Approximate
11:56PM 58.0805 -32.8815 92° East  Level FlightAware Approximate
11:57PM 58.0760 -32.6224 92° East  Level FlightAware Approximate
11:58PM 58.0709 -32.3634 92° East  Level FlightAware Approximate
11:59PM 58.0652 -32.1045 92° East  Level FlightAware Approximate
12:00AM 58.0591 -31.8456 92° East  Level FlightAware Approximate
12:01AM 58.0524 -31.5869 93° East  Level FlightAware Approximate
12:02AM 58.0452 -31.3283 93° East  Level FlightAware Approximate
12:03AM 58.0375 -31.0697 93° East  Level FlightAware Approximate
12:04AM 58.0293 -30.8113 93° East  Level FlightAware Approximate
12:05AM 58.0205 -30.5530 94° East  Level FlightAware Approximate
12:06AM 58.0112 -30.2948 94° East  Level FlightAware Approximate
12:07AM 58.0014 -30.0368 94° East  Level FlightAware Approximate
12:08AM 58.0085 -29.7788 86° East  Level FlightAware Approximate
12:09AM 58.0179 -29.5207 86° East  Level FlightAware Approximate
12:10AM 58.0268 -29.2624 86° East  Level FlightAware Approximate
12:11AM 58.0352 -29.0040 86° East  Level FlightAware Approximate
12:12AM 58.0431 -28.7455 87° East  Level FlightAware Approximate
12:13AM 58.0504 -28.4869 87° East  Level FlightAware Approximate
12:14AM 58.0572 -28.2282 87° East  Level FlightAware Approximate
12:15AM 58.0635 -27.9694 87° East  Level FlightAware Approximate
12:16AM 58.0693 -27.7105 87° East  Level FlightAware Approximate
12:17AM 58.0745 -27.4515 88° East  Level FlightAware Approximate
12:18AM 58.0793 -27.1925 88° East  Level FlightAware Approximate
12:19AM 58.0834 -26.9334 88° East  Level FlightAware Approximate
12:20AM 58.0871 -26.6742 88° East  Level FlightAware Approximate
12:21AM 58.0902 -26.4150 89° East  Level FlightAware Approximate
12:22AM 58.0928 -26.1557 89° East  Level FlightAware Approximate
12:23AM 58.0949 -25.8964 89° East  Level FlightAware Approximate
12:24AM 58.0965 -25.6371 89° East  Level FlightAware Approximate
12:25AM 58.0975 -25.3778 89° East  Level FlightAware Approximate
12:26AM 58.0980 -25.1184 90° East  Level FlightAware Approximate
12:27AM 58.0980 -24.8591 90° East  Level FlightAware Approximate
12:28AM 58.0975 -24.5997 90° East  Level FlightAware Approximate
12:29AM 58.0964 -24.3404 90° East  Level FlightAware Approximate
12:30AM 58.0948 -24.0810 91° East  Level FlightAware Approximate
12:31AM 58.0926 -23.8218 91° East  Level FlightAware Approximate
12:32AM 58.0900 -23.5625 91° East  Level FlightAware Approximate
12:33AM 58.0868 -23.3033 91° East  Level FlightAware Approximate
12:34AM 58.0831 -23.0441 91° East  Level FlightAware Approximate
12:35AM 58.0789 -22.7850 92° East  Level FlightAware Approximate
12:36AM 58.0741 -22.5259 92° East  Level FlightAware Approximate
12:37AM 58.0688 -22.2670 92° East  Level FlightAware Approximate
12:38AM 58.0630 -22.0081 92° East  Level FlightAware Approximate
12:39AM 58.0567 -21.7493 93° East  Level FlightAware Approximate
12:40AM 58.0498 -21.4906 93° East  Level FlightAware Approximate
12:41AM 58.0424 -21.2320 93° East  Level FlightAware Approximate
12:42AM 58.0345 -20.9735 93° East  Level FlightAware Approximate
12:43AM 58.0261 -20.7151 93° East  Level FlightAware Approximate
12:44AM 58.0171 -20.4569 94° East  Level FlightAware Approximate
12:45AM 58.0077 -20.1987 94° East  Level FlightAware Approximate
12:46AM 57.9924 -19.9424 104° East  Level FlightAware Approximate
12:47AM 57.9589 -19.6917 104° East  Level FlightAware Approximate
12:48AM 57.9250 -19.4415 104° East  Level FlightAware Approximate
12:49AM 57.8906 -19.1918 104° East  Level FlightAware Approximate
12:50AM 57.8557 -18.9426 105° East  Level FlightAware Approximate
12:51AM 57.8202 -18.6939 105° East  Level FlightAware Approximate
12:52AM 57.7844 -18.4456 105° East  Level FlightAware Approximate
12:53AM 57.7480 -18.1979 105° East  Level FlightAware Approximate
12:54AM 57.7111 -17.9506 105° East  Level FlightAware Approximate
12:55AM 57.6742 -17.7036 105° East  Level FlightAware Approximate
12:56AM 57.6382 -17.4564 105° East  Level FlightAware Approximate
12:57AM 57.6018 -17.2097 105° East  Level FlightAware Approximate
12:58AM 57.5648 -16.9635 106° East  Level FlightAware Approximate
12:59AM 57.5274 -16.7178 106° East  Level FlightAware Approximate
01:00AM 57.4894 -16.4726 106° East  Level FlightAware Approximate
01:01AM 57.4511 -16.2279 106° East  Level FlightAware Approximate
01:02AM 57.4122 -15.9838 106° East  Level FlightAware Approximate
01:03AM 57.3729 -15.7401 107° East  Level FlightAware Approximate
01:04AM 57.3329 -15.4971 107° East  Level FlightAware Approximate
01:05AM 57.2921 -15.2548 107° East  Level FlightAware Approximate
01:06AM 57.2509 -15.0130 107° East  Level FlightAware Approximate
01:07AM 57.2093 -14.7718 108° East  Level FlightAware Approximate
01:08AM 57.1671 -14.5311 108° East  Level FlightAware Approximate
01:09AM 57.1245 -14.2909 108° East  Level FlightAware Approximate
01:10AM 57.0815 -14.0514 108° East  Level FlightAware Approximate
01:11AM 57.0380 -13.8123 108° East  Level FlightAware Approximate
01:12AM 56.9942 -13.5747 109° East  Level FlightAware Approximate
01:13AM 56.9499 -13.3377 109° East  Level FlightAware Approximate
01:14AM 56.9052 -13.1012 109° East  Level FlightAware Approximate
01:15AM 56.8601 -12.8653 109° East  Level FlightAware Approximate
01:16AM 56.8145 -12.6299 109° East  Level FlightAware Approximate
01:17AM 56.7685 -12.3952 110° East  Level FlightAware Approximate
01:18AM 56.7220 -12.1610 110° East  Level FlightAware Approximate
01:19AM 56.6751 -11.9274 110° East  Level FlightAware Approximate
01:20AM 56.6278 -11.6944 110° East  Level FlightAware Approximate
01:21AM 56.5800 -11.4619 110° East  Level FlightAware Approximate
01:21AM 55.7270 -9.3260 111° Southeast 566 651 35,100  Level FlightAware
01:22AM 56.5318 -11.2301 111° Southeast  Level FlightAware Approximate
01:22AM 55.6800 -9.1620 117° Southeast 566 651 35,100  Level FlightAware
01:23AM 55.6321 -8.9948 117° Southeast 466 536 33,500 -180 Descending FlightAware UK
01:23AM 55.6280 -8.9810 117° Southeast 564 649 35,000  Climbing FlightAware
01:23AM 55.6035 -8.8965 117° Southeast 466 536 33,500 -2,520 Descending FlightAware UK
01:23AM 55.5822 -8.8227 117° Southeast 466 536 33,500 4,080 Level FlightAware UK
01:23AM 55.5800 -8.8150 117° Southeast 563 648 35,000  Climbing FlightAware
01:24AM 55.5537 -8.7247 117° Southeast 464 534 33,500 -2,400 Descending FlightAware UK
01:24AM 55.5318 -8.6510 118° Southeast 464 534 33,500 4,500 Level FlightAware UK
01:24AM 55.5340 -8.6590 118° Southeast 560 644 35,000  Climbing FlightAware
01:24AM 55.5103 -8.5784 118° Southeast 462 532 33,500 -2,700 Descending FlightAware UK
01:25AM 55.4888 -8.5058 118° Southeast 462 532 33,500 3,060 Level FlightAware UK
01:25AM 55.4790 -8.4720 118° Southeast 559 643 35,000  Climbing FlightAware
01:25AM 55.4530 -8.3850 118° Southeast 460 529 33,500 -2,460 Descending FlightAware UK
01:25AM 55.4315 -8.3128 118° Southeast 460 529 33,500 4,260 Level FlightAware UK
01:25AM 55.4330 -8.3150 118° Southeast 557 641 35,000  Climbing FlightAware
01:26AM 55.4102 -8.2405 118° Southeast 460 529 33,500 -2,760 Descending FlightAware UK
01:26AM 55.3887 -8.1686 118° Southeast 460 529 33,500 3,000 Level FlightAware UK
01:26AM 55.3790 -8.1370 118° Southeast 555 639 35,000  Climbing FlightAware
01:27AM 55.3527 -8.0493 118° Southeast 458 527 33,500 -2,520 Descending FlightAware UK
01:27AM 55.3311 -7.9780 118° Southeast 458 527 33,500 4,080 Level FlightAware UK
01:27AM 55.3310 -7.9770 118° Southeast 554 638 35,000  Climbing FlightAware
01:27AM 55.3022 -7.8831 118° Southeast 458 527 33,500 -2,400 Descending FlightAware UK
01:28AM 55.2807 -7.8122 118° Southeast 458 527 33,500 4,500 Level FlightAware UK
01:28AM 55.2800 -7.8090 118° Southeast 552 635 35,000  Climbing FlightAware
01:28AM 55.2592 -7.7413 118° Southeast 458 527 33,500 -2,700 Descending FlightAware UK
01:28AM 55.2375 -7.6705 118° Southeast 458 527 33,500 3,060 Level FlightAware UK
01:28AM 55.2270 -7.6350 118° Southeast 551 634 35,000  Climbing FlightAware
01:29AM 55.2013 -7.5529 118° Southeast 458 527 33,500  Descending FlightAware UK
01:29AM 55.1850 -7.4990 118° Southeast 550 633 35,000  Climbing FlightAware
01:29AM 55.1796 -7.4824 118° Southeast 456 525 33,500 -4,500 Descending FlightAware UK
01:29AM 55.1580 -7.4122 118° Southeast 456 525 33,500  Level FlightAware UK
01:30AM 55.1359 -7.3413 119° Southeast 456 525 33,500  Level FlightAware UK
01:30AM 55.1142 -7.2715 118° Southeast 456 525 33,500 4,320 Level FlightAware UK
01:30AM 55.1130 -7.2660 118° Southeast 548 631 35,100  Climbing FlightAware
01:30AM 55.0853 -7.1784 118° Southeast 458 527 33,500 -2,580 Descending FlightAware UK
01:31AM 55.0634 -7.1088 119° Southeast 458 527 33,500  Level FlightAware UK
01:31AM 55.0416 -7.0392 119° Southeast 458 527 33,500  Level FlightAware UK
01:31AM 55.0196 -6.9697 119° Southeast 458 527 33,500  Level FlightAware UK
01:32AM 54.9903 -6.8770 119° Southeast 458 527 33,500  Level FlightAware UK
01:32AM 54.9683 -6.8076 119° Southeast 458 527 33,500  Level FlightAware UK
01:32AM 54.9463 -6.7383 119° Southeast 458 527 33,500 3,960 Level FlightAware UK
01:32AM 54.9420 -6.7240 119° Southeast 543 625 35,100  Climbing FlightAware
01:33AM 54.9171 -6.6461 119° Southeast 458 527 33,500 -2,700 Descending FlightAware UK
01:33AM 54.8949 -6.5772 119° Southeast 458 527 33,500 4,080 Level FlightAware UK
01:33AM 54.8930 -6.5700 119° Southeast 543 625 35,000  Climbing FlightAware
01:33AM 54.8651 -6.4847 119° Southeast 458 527 33,500 -2,400 Descending FlightAware UK
01:34AM 54.8430 -6.4160 119° Southeast 458 527 33,500 3,600 Level FlightAware UK
01:34AM 54.8380 -6.3990 119° Southeast 542 624 35,000  Climbing FlightAware
01:34AM 54.8134 -6.3246 119° Southeast 458 527 33,500 -2,580 Descending FlightAware UK
01:34AM 54.7911 -6.2564 120° Southeast 458 527 33,500 3,180 Level FlightAware UK
01:34AM 54.7830 -6.2310 120° Southeast 542 624 35,000  Climbing FlightAware
01:35AM 54.7543 -6.1423 120° Southeast 458 527 33,500  Descending FlightAware UK
01:35AM 54.7330 -6.0770 120° Southeast 542 624 35,000  Climbing FlightAware
01:35AM 54.7097 -6.0056 120° Southeast 456 525 33,500 -2,700 Descending FlightAware UK
01:36AM 54.6872 -5.9367 119° Southeast 458 527 33,500 3,720 Level FlightAware UK
01:36AM 54.6840 -5.9280 119° Southeast 541 623 35,000  Climbing FlightAware
01:36AM 54.6568 -5.8462 119° Southeast 458 527 33,500 -2,520 Descending FlightAware UK
01:36AM 54.6344 -5.7783 120° Southeast 460 529 33,500 3,300 Level FlightAware UK
01:36AM 54.6280 -5.7590 120° Southeast 546 628 35,000  Climbing FlightAware
01:37AM 54.6049 -5.6886 120° Southeast 460 529 33,500 -2,760 Descending FlightAware UK
01:37AM 54.5821 -5.6203 120° Southeast 458 527 33,500 3,600 Level FlightAware UK
01:37AM 54.5780 -5.6080 120° Southeast 545 627 35,000  Climbing FlightAware
01:37AM 54.5520 -5.5303 120° Southeast 458 527 33,500 -2,580 Descending FlightAware UK
01:38AM 54.5293 -5.4630 120° Southeast 458 527 33,500 3,180 Level FlightAware UK
01:38AM 54.5210 -5.4400 120° Southeast 546 628 35,000  Climbing FlightAware
01:38AM 54.4914 -5.3506 120° Southeast 458 527 33,500  Descending FlightAware UK
01:39AM 54.4710 -5.2900 120° Southeast 545 627 35,000  Climbing FlightAware
01:39AM 54.4459 -5.2159 120° Southeast 456 525 33,500 -2,700 Descending FlightAware UK
01:39AM 54.4231 -5.1487 120° Southeast 456 525 33,500 3,720 Level FlightAware UK
01:39AM 54.4210 -5.1430 120° Southeast 544 626 35,000  Climbing FlightAware
01:40AM 54.3850 -5.0373 120° Southeast 456 525 33,500  Descending FlightAware UK
01:40AM 54.3750 -5.0090 120° Southeast 544 626 35,000  Climbing FlightAware
01:40AM 54.3393 -4.9038 120° Southeast 456 525 33,500 -2,400 Descending FlightAware UK
01:41AM 54.3164 -4.8373 121° Southeast 456 525 33,500 3,600 Level FlightAware UK
01:41AM 54.3090 -4.8170 121° Southeast 545 627 35,000  Climbing FlightAware
01:41AM 54.2858 -4.7486 121° Southeast 456 525 33,500 -2,580 Descending FlightAware UK
01:41AM 54.2629 -4.6819 120° Southeast 456 525 33,500 3,180 Level FlightAware UK
01:41AM 54.2540 -4.6560 120° Southeast 543 625 35,000  Climbing FlightAware
01:42AM 54.2319 -4.5928 120° Southeast 456 525 33,500 120 Descending FlightAware UK
01:42AM 54.2030 -4.5090 120° Southeast 546 628 35,100  Climbing FlightAware
01:42AM 54.1857 -4.4321 120° Southeast 456 525 33,500 -2,760 Descending FlightAware UK
01:43AM 54.1712 -4.3571 108° East 454 522 33,500 3,060 Level FlightAware UK
01:43AM 54.1640 -4.3220 108° East 552 635 35,000  Climbing FlightAware
01:43AM 54.1474 -4.2335 108° East 454 522 33,500  Descending FlightAware UK
01:43AM 54.1330 -4.1630 108° East 549 632 35,000  Climbing FlightAware
01:44AM 54.1177 -4.0862 108° East 454 522 33,500 120 Descending FlightAware UK
01:44AM 54.0980 -3.9930 108° East 549 632 35,100  Climbing FlightAware
01:44AM 54.0814 -3.9160 108° East 454 522 33,500 -180 Descending FlightAware UK
01:45AM 54.0600 -3.8170 108° East 550 633 35,000  Climbing FlightAware
01:45AM 54.0440 -3.7454 108° East 456 525 33,500 -2,760 Descending FlightAware UK
01:45AM 54.0283 -3.6732 110° East 456 525 33,500 3,600 Level FlightAware UK
01:46AM 54.0250 -3.6540 110° East 551 634 35,000  Climbing FlightAware
01:46AM 54.0043 -3.5489 110° East 458 527 33,500 120 Descending FlightAware UK
01:46AM 53.9870 -3.4640 110° East 552 635 35,100  Climbing FlightAware
01:47AM 53.9699 -3.3768 110° East 460 529 33,500 -180 Descending FlightAware UK
01:47AM 53.9540 -3.3010 110° East 553 636 35,000  Climbing FlightAware
01:47AM 53.9398 -3.2287 110° East 462 532 33,500 -2,700 Descending FlightAware UK
01:48AM 53.9247 -3.1552 109° East 462 532 33,500 3,720 Level FlightAware UK
01:48AM 53.9230 -3.1470 109° East 552 635 35,000  Climbing FlightAware
01:48AM 53.9046 -3.0573 109° East 462 532 33,500 -2,520 Descending FlightAware UK
01:48AM 53.8893 -2.9840 110° East 462 532 33,500 3,300 Level FlightAware UK
01:48AM 53.8840 -2.9590 110° East 551 634 35,000  Climbing FlightAware
01:49AM 53.8689 -2.8865 110° East 462 532 33,500  Descending FlightAware UK
01:49AM 53.8500 -2.7960 110° East 549 632 35,000  Climbing FlightAware
01:49AM 53.8333 -2.7164 110° East 462 532 33,500 -2,580 Descending FlightAware UK
01:50AM 53.8178 -2.6429 110° East 462 532 33,500 4,140 Level FlightAware UK
01:50AM 53.8160 -2.6340 110° East 549 632 35,100  Climbing FlightAware
01:50AM 53.7974 -2.5461 110° East 464 534 33,500 -180 Descending FlightAware UK
01:50AM 53.7780 -2.4560 110° East 548 631 35,000  Climbing FlightAware
01:51AM 53.7612 -2.3764 110° East 462 532 33,500  Descending FlightAware UK
01:51AM 53.7464 -2.3089 110° East 548 631 35,000 1,860 Climbing FlightAware ADS-B
01:52AM 53.7204 -2.1879 110° East 547 629 35,000 -1,680 Level FlightAware ADS-B
01:52AM 53.6989 -2.0874 110° East 462 532 33,500 180 Descending FlightAware UK
01:52AM 53.6918 -2.0556 110° East 545 627 35,100  Climbing FlightAware ADS-B
01:52AM 53.6782 -1.9919 110° East 462 532 33,500  Descending FlightAware UK
01:53AM 53.6624 -1.9205 110° East 544 626 35,100  Climbing FlightAware ADS-B
01:53AM 53.6471 -1.8492 110° East 460 529 33,500 -180 Descending FlightAware UK
01:53AM 53.6325 -1.7837 110° East 544 626 35,000  Climbing FlightAware ADS-B
01:54AM 53.6157 -1.7066 110° East 458 527 33,500  Descending FlightAware UK
01:54AM 53.6038 -1.6530 110° East 544 626 35,000  Climbing FlightAware ADS-B
01:54AM 53.5893 -1.5872 110° East 458 527 33,500 -2,700 Descending FlightAware UK
01:54AM 53.5735 -1.5161 111° Southeast 456 525 33,500 2,340 Level FlightAware UK
01:55AM 53.5556 -1.4361 111° Southeast 547 629 35,000  Climbing FlightAware ADS-B
01:55AM 53.5415 -1.3729 111° Southeast 454 522 33,500  Descending FlightAware UK
01:55AM 53.5272 -1.3099 111° Southeast 548 631 35,000  Climbing FlightAware ADS-B
01:56AM 53.5092 -1.2301 111° Southeast 454 522 33,500  Descending FlightAware UK
01:56AM 53.5000 -1.1890 111° Southeast 544 626 35,000  Climbing FlightAware ADS-B
01:56AM 53.4716 -1.0637 111° Southeast 454 522 33,500 -1,860 Descending FlightAware UK
01:57AM 53.4556 -0.9932 111° Southeast 454 522 33,500 2,700 Level FlightAware UK
01:57AM 53.4460 -0.9540 111° Southeast 542 624 35,000  Climbing FlightAware
01:57AM 53.4287 -0.8759 111° Southeast 454 522 33,500 -2,760 Descending FlightAware UK
01:57AM 53.4126 -0.8055 111° Southeast 454 522 33,500 3,600 Level FlightAware UK
01:57AM 53.4090 -0.7910 111° Southeast 542 624 35,000 4,680 Climbing FlightAware
01:58AM 53.3960 -0.7340 111° Southeast 543 625 35,000 -2,580 Level FlightAware ADS-B
01:58AM 53.3745 -0.6416 111° Southeast 456 525 33,500 -1,920 Descending FlightAware UK
01:58AM 53.3525 -0.5474 111° Southeast 456 525 33,500 2,220 Level FlightAware UK
01:59AM 53.3390 -0.4888 111° Southeast 543 625 35,000  Climbing FlightAware ADS-B
01:59AM 53.3251 -0.4298 111° Southeast 458 527 33,500 -2,820 Descending FlightAware UK
01:59AM 53.3089 -0.3604 111° Southeast 458 527 33,500 3,000 Level FlightAware UK
01:59AM 53.3000 -0.3240 111° Southeast 540 621 35,000 3,600 Climbing FlightAware
02:00AM 53.2868 -0.2663 111° Southeast 541 623 35,000  Level FlightAware ADS-B
02:00AM 53.2561 -0.1370 112° Southeast 541 623 35,000 -1,920 Level FlightAware ADS-B
02:00AM 53.2427 -0.0808 112° Southeast 458 527 33,500  Descending FlightAware UK
02:01AM 53.2259 -0.0100 112° Southeast 542 624 35,000  Climbing FlightAware ADS-B
02:01AM 53.2092 0.0591 112° Southeast 458 527 33,500  Descending FlightAware UK
02:01AM 53.1966 0.1120 112° Southeast 543 625 35,000  Climbing FlightAware ADS-B
02:02AM 53.1761 0.1977 112° Southeast 460 529 33,500  Descending FlightAware UK
02:02AM 53.1678 0.2313 112° Southeast 542 624 35,000  Climbing FlightAware ADS-B
02:02AM 53.1533 0.2920 112° Southeast 460 529 33,500  Descending FlightAware UK
02:02AM 53.1379 0.3546 112° Southeast 542 624 35,000  Climbing FlightAware ADS-B
02:03AM 53.1193 0.4308 112° Southeast 460 529 33,500 180 Descending FlightAware UK
02:03AM 53.1091 0.4728 112° Southeast 542 624 35,100  Climbing FlightAware ADS-B
02:03AM 53.0909 0.5470 112° Southeast 460 529 33,500  Descending FlightAware UK
02:04AM 53.0702 0.6315 112° Southeast 542 624 35,100  Climbing FlightAware ADS-B
02:04AM 53.0511 0.7095 112° Southeast 462 532 33,500 -180 Descending FlightAware UK
02:04AM 53.0378 0.7629 112° Southeast 543 625 35,000 2,100 Climbing FlightAware ADS-B
02:05AM 53.0088 0.8797 112° Southeast 542 624 35,100 -2,040 Climbing FlightAware ADS-B
02:05AM 52.9941 0.9399 112° Southeast 462 532 33,500 -240 Descending FlightAware UK
02:05AM 52.9827 0.9986 112° Southeast 541 623 35,000  Climbing FlightAware ADS-B
02:05AM 52.9694 1.0832 112° Southeast 462 532 33,500  Descending FlightAware UK
02:06AM 52.9643 1.1254 112° Southeast 535 616 35,000 2,160 Climbing FlightAware ADS-B
02:06AM 52.9503 1.2462 101° East 535 616 35,000 -1,860 Level FlightAware ADS-B
02:06AM 52.9412 1.3246 101° East 462 532 33,500  Descending FlightAware UK
02:07AM 52.9299 1.4208 101° East 535 616 35,000  Climbing FlightAware ADS-B
02:07AM 52.9210 1.4940 101° East 462 532 33,500  Descending FlightAware UK
02:07AM 52.9137 1.5569 101° East 534 615 35,000 2,040 Climbing FlightAware ADS-B
02:08AM 52.8993 1.6773 101° East 533 613 35,100 -1,800 Climbing FlightAware ADS-B
02:08AM 52.8894 1.7579 101° East 464 534 33,500 -2,580 Descending FlightAware UK
02:09AM 52.8807 1.8307 101° East 464 534 33,500 3,600 Level FlightAware UK
02:09AM 52.8778 1.8543 101° East 533 613 35,000  Climbing FlightAware ADS-B
02:09AM 52.8661 1.9500 101° East 464 534 33,500  Descending FlightAware UK
02:09AM 52.8610 1.9920 101° East 529 609 35,000 2,220 Climbing FlightAware
02:10AM 52.8469 2.1054 102° East 530 610 35,000 -1,920 Level FlightAware ADS-B
02:10AM 52.8337 2.2110 102° East 460 529 33,500 -2,100 Descending FlightAware UK
02:10AM 52.8246 2.2827 102° East 460 529 33,500 2,400 Level FlightAware UK
02:11AM 52.8170 2.3460 102° East 526 605 35,000  Climbing FlightAware
02:11AM 52.8070 2.4241 102° East 460 529 33,500  Descending FlightAware UK
02:11AM 52.7970 2.5010 102° East 525 604 35,000  Climbing FlightAware
02:12AM 52.7857 2.5890 102° East 460 529 33,500 -2,460 Descending FlightAware UK
02:12AM 52.7767 2.6584 102° East 460 529 33,500 4,800 Level FlightAware UK
02:12AM 52.7770 2.6580 102° East 523 602 35,100  Climbing FlightAware
02:12AM 52.7676 2.7283 102° East 460 529 33,500 -2,940 Descending FlightAware UK
02:13AM 52.7586 2.7982 102° East 458 527 33,500 3,000 Level FlightAware UK
02:13AM 52.7530 2.8380 102° East 522 601 35,000  Climbing FlightAware
02:13AM 52.7405 2.9380 102° East 458 527 33,500  Descending FlightAware UK
02:14AM 52.7310 2.9890 102° East 524 603 35,000  Climbing FlightAware
02:14AM 52.7092 3.0981 102° East 458 527 33,500  Descending FlightAware UK
02:14AM 52.6950 3.1570 102° East 527 606 35,000  Climbing FlightAware
02:15AM 52.6708 3.2540 102° East 458 527 33,500  Descending FlightAware UK
02:15AM 52.6570 3.3050 102° East 528 608 35,000  Climbing FlightAware
02:15AM 52.6348 3.3858 102° East 458 527 33,500 -2,400 Descending FlightAware UK
02:16AM 52.6168 3.4516 114° Southeast 458 527 33,500 4,500 Level FlightAware UK
02:16AM 52.6170 3.4470 114° Southeast 528 608 35,000  Climbing FlightAware
02:16AM 52.5968 3.5166 114° Southeast 458 527 33,500 -2,700 Descending FlightAware UK
02:16AM 52.5765 3.5808 117° Southeast 458 527 33,500 3,060 Level FlightAware UK
02:16AM 52.5680 3.6100 117° Southeast 528 608 35,000  Climbing FlightAware
02:17AM 52.5371 3.7093 117° Southeast 458 527 33,500  Descending FlightAware UK
02:17AM 52.5240 3.7520 117° Southeast 526 605 35,000 1,620 Climbing FlightAware
02:18AM 52.4810 3.8960 116° Southeast 524 603 35,000 60 Level FlightAware
02:18AM 52.4310 4.0590 117° Southeast 522 601 35,100 60 Climbing FlightAware
02:19AM 52.3890 4.2000 116° Southeast 522 601 35,100 -1,440 Level FlightAware
02:20AM 52.3566 4.3048 116° Southeast 458 527 33,500 -180 Descending FlightAware UK
02:20AM 52.3420 4.3540 116° Southeast 521 600 35,000  Climbing FlightAware
02:20AM 52.3119 4.4525 116° Southeast 462 532 33,500  Descending FlightAware UK
02:21AM 52.2980 4.4950 116° Southeast 520 598 35,000  Climbing FlightAware
02:21AM 52.2792 4.5571 116° Southeast 460 529 33,500 120 Descending FlightAware UK
02:21AM 52.2490 4.6550 116° Southeast 518 596 35,100 1,260 Climbing FlightAware
02:22AM 52.2050 4.7950 117° Southeast 517 595 35,000 -1,260 Descending FlightAware
02:23AM 52.1615 4.9320 117° Southeast 460 529 33,500  Descending FlightAware UK
02:23AM 52.1650 4.9220 117° Southeast 516 594 35,000  Climbing FlightAware
02:23AM 52.1253 5.0325 117° Southeast 458 527 33,500 120 Descending FlightAware UK
02:23AM 52.1130 5.0860 117° Southeast 514 592 35,100 1,560 Climbing FlightAware
02:24AM 52.0720 5.2150 117° Southeast 513 590 35,000 -1,620 Descending FlightAware
02:24AM 52.0428 5.3011 117° Southeast 462 532 33,500 -2,340 Descending FlightAware UK
02:25AM 52.0247 5.3635 115° Southeast 462 532 33,500 3,720 Level FlightAware UK
02:25AM 52.0220 5.3720 115° Southeast 512 589 35,000  Climbing FlightAware
02:25AM 51.9984 5.4451 115° Southeast 460 529 33,500  Descending FlightAware UK
02:25AM 51.9780 5.5080 115° Southeast 511 588 35,000  Climbing FlightAware
02:26AM 51.9532 5.5879 115° Southeast 458 527 33,500  Descending FlightAware UK
02:26AM 51.9360 5.6380 115° Southeast 510 587 35,000  Climbing FlightAware
02:26AM 51.9143 5.7107 115° Southeast 456 525 33,500 120 Descending FlightAware UK
02:27AM 51.8830 5.8000 115° Southeast 509 586 35,100  Climbing FlightAware
02:27AM 51.8415 5.9322 115° Southeast 456 525 33,500 -180 Descending FlightAware UK
02:28AM 51.8390 5.9340 115° Southeast 508 585 35,000  Climbing FlightAware
02:28AM 51.8227 5.9930 115° Southeast 456 525 33,500 120 Descending FlightAware UK
02:28AM 51.7960 6.0670 115° Southeast 506 582 35,100 1,380 Climbing FlightAware
02:29AM 51.7540 6.1940 118° Southeast 506 582 35,000  Descending FlightAware
02:30AM 51.6900 6.3530 123° Southeast 513 590 35,100  Climbing FlightAware
02:30AM 51.6270 6.4690 131° Southeast 512 589 35,000 -120 Descending FlightAware
02:31AM 51.5710 6.5760 130° Southeast 512 589 35,000 60 Level FlightAware
02:32AM 51.4990 6.7190 129° Southeast 510 587 35,100  Climbing FlightAware
02:32AM 51.4420 6.8330 129° Southeast 510 587 35,000 -120 Descending FlightAware
02:33AM 51.3790 6.9510 131° Southeast 510 587 35,000 60 Level FlightAware
02:34AM 51.3070 7.0830 131° Southeast 508 585 35,100  Climbing FlightAware
02:35AM 51.2480 7.1920 131° Southeast 508 585 35,000 -120 Descending FlightAware
02:35AM 51.1820 7.3130 131° Southeast 507 583 35,000 60 Level FlightAware
02:36AM 51.1190 7.4260 132° Southeast 506 582 35,100 60 Climbing FlightAware
02:37AM 51.0470 7.5560 131° Southeast 506 582 35,100 -120 Level FlightAware
02:37AM 50.9890 7.6620 131° Southeast 505 581 35,000 -120 Descending FlightAware
02:38AM 50.9340 7.7550 133° Southeast 506 582 35,000 -240 Level FlightAware
02:41AM 50.6943 8.1580 133° Southeast  Level Estimated
02:42AM 50.5999 8.3149 133° Southeast  Level Estimated
02:43AM 50.5053 8.4711 134° Southeast  Level Estimated
02:44AM 50.4105 8.6268 134° Southeast  Level Estimated
02:45AM 50.3155 8.7818 134° Southeast  Level Estimated
02:46AM 50.2203 8.9362 134° Southeast  Level Estimated
02:47AM 50.1249 9.0900 134° Southeast  Level Estimated
02:47AM 49.9780 8.9760 134° Southeast 506 582 33,100  Level FlightAware
02:47AM 49.9060 9.0650 141° Southeast 506 582 33,000 -120 Descending FlightAware
02:48AM 49.8240 9.1650 142° Southeast 494 568 33,000  Level FlightAware
02:49AM 49.7540 9.2500 142° Southeast 484 557 33,000 60 Level FlightAware
02:49AM 49.6860 9.3340 141° Southeast 481 554 33,100 -240 Climbing FlightAware
02:50AM 49.6070 9.4370 140° Southeast 475 547 32,700 -720 Descending FlightAware
02:51AM 49.5740 9.4930 132° Southeast 470 541 32,100 -1,560 Descending FlightAware
02:52AM 49.5110 9.6020 132° Southeast 463 533 30,500 -2,100 Descending FlightAware
02:52AM 49.4580 9.6960 131° Southeast 452 520 29,300 -2,280 Descending FlightAware
02:53AM 49.3810 9.8300 131° Southeast 433 498 27,500 -1,920 Descending FlightAware
02:54AM 49.3400 9.9010 132° Southeast 425 489 26,600 -1,320 Descending FlightAware
02:54AM 49.2860 9.9940 132° Southeast 418 481 25,700 -960 Descending FlightAware
02:55AM 49.2020 10.1380 132° Southeast 406 467 25,000 -480 Descending FlightAware
02:56AM 49.1640 10.2040 131° Southeast 406 467 25,000  Level FlightAware
02:57AM 49.0980 10.3150 132° Southeast 410 472 25,000  Level FlightAware
02:58AM 49.0290 10.4210 135° Southeast 406 467 25,000 -540 Level FlightAware
02:58AM 48.9720 10.5120 134° Southeast 399 459 24,100 -1,500 Descending FlightAware
02:59AM 48.9290 10.5810 133° Southeast 396 456 23,000 -1,200 Descending FlightAware
03:00AM 48.8810 10.6580 133° Southeast 396 456 22,600 -300 Descending FlightAware
03:00AM 48.8280 10.7450 133° Southeast 396 456 22,600 -2,340 Level FlightAware
03:01AM 48.7740 10.8260 135° Southeast 362 417 19,300 -3,360 Descending FlightAware
03:02AM 48.7200 10.9100 134° Southeast 355 409 17,900 -1,800 Descending FlightAware
03:03AM 48.6710 10.9830 135° Southeast 349 402 16,600 -1,800 Descending FlightAware
03:03AM 48.6250 11.0450 138° Southeast 341 392 15,500 -1,440 Descending FlightAware
03:04AM 48.5860 11.0990 138° Southeast 329 379 14,800 -1,740 Descending FlightAware
03:05AM 48.5310 11.1730 138° Southeast 329 379 13,200 -1,920 Descending FlightAware
03:05AM 48.4820 11.2390 138° Southeast 325 374 12,000 -1,500 Descending FlightAware
03:06AM 48.4350 11.3020 138° Southeast 318 366 11,000 -900 Descending FlightAware
03:06AM 48.4180 11.3530 117° Southeast 318 366 11,000  Level FlightAware
03:07AM 48.4230 11.4550 86° East 315 362 11,000  Level FlightAware
03:08AM 48.4300 11.5380 83° East 314 361 11,000 -180 Level FlightAware
03:09AM 48.4400 11.6670 83° East 311 358 10,700 -660 Descending FlightAware
03:10AM 48.4470 11.7470 82° East 296 341 9,900 -1,440 Descending FlightAware
03:10AM 48.4510 11.8010 84° East 286 329 9,200 -1,800 Descending FlightAware
03:10AM 48.4530 11.8330 85° East 279 321 8,700 -2,280 Descending FlightAware
03:11AM 48.4570 11.8910 84° East 278 320 7,500 -2,340 Descending FlightAware
03:11AM 48.4610 11.9400 83° East 279 321 6,600 -2,100 Descending FlightAware
03:11AM 48.4620 11.9530 83° East 278 320 6,300 -1,620 Descending FlightAware
03:12AM 48.4660 12.0090 84° East 274 315 5,400 -2,040 Descending FlightAware
03:12AM 48.4660 12.0910 90° East 263 303 4,100 -2,280 Descending FlightAware
03:13AM 48.4600 12.1050 123° Southeast 260 299 3,900 -720 Descending FlightAware
03:13AM 48.4440 12.1180 152° Southeast 239 275 3,800 -180 Descending FlightAware
03:13AM 48.4130 12.1100 190° South 220 253 3,800  Level FlightAware
03:14AM 48.4010 12.1000 209° Southwest 223 257 3,800  Level FlightAware
03:14AM 48.3930 12.0860 229° Southwest 220 253 3,800  Level FlightAware
03:14AM 48.3820 12.0450 248° West 208 239 3,800 -120 Level FlightAware
03:15AM 48.3810 12.0050 268° West 182 209 3,700 -600 Descending FlightAware
03:15AM 48.3780 11.9740 262° West 181 208 3,300 -1,080 Descending FlightAware
03:15AM 48.3770 11.9560 265° West 180 207 3,000 -960 Descending FlightAware
03:16AM 48.3740 11.9180 263° West 172 198 2,600 -900 Descending FlightAware
03:16AM 48.3720 11.8910 264° West 145 167 2,200 -900 Descending FlightAware
03:17AM 48.3710 11.8780 263° West 136 157 2,000 -840 Descending FlightAware
03:17AM 48.3690 11.8500 264° West 135 155 1,600 -780 Descending FlightAware
03:17AM 48.3680 11.8400 261° West 135 155 1,500 -600 Descending FlightAware
03:18AM 48.3660 11.8140 263° West 135 155 1,200 -600 Descending FlightAware